IW5AKT-5 Musigliano PI IT current weather conditions

sailwx.info

Wind from 142 at 3 knots gusting 6

Air temperature 14.4° C
Dewpoint 9.2° C

Last reported at 2019-Nov-14 21:03 UTC.
Time now 2019-Nov-14 21:32 UTC

Location: N 43°42' E 010°27'.
View on Google Maps.

See reports from other nearby stations

  
Tides and Currents Weather Stations Pressure Air Temp Water Temp Dewpoint Dewpoint Depression Visibility Wind Speed Wind Dir Waves Ship Positions
date/time (UTC)wind fromknots sea level pressurealtimeterstation pressurevisibilityair tempwater tempwave heightnotes
2019-Nov-14 21:03 142 3 gusting 6 14.4
2019-Nov-14 20:59 142 3 gusting 5 14.4
2019-Nov-14 20:53 142 3 gusting 5 14.4
2019-Nov-14 20:49 142 3 gusting 6 15.0
2019-Nov-14 20:43 045 3 gusting 3 14.4
2019-Nov-14 20:39 135 3 gusting 4 14.4
2019-Nov-14 20:33 142 5 gusting 6 15.0
2019-Nov-14 20:29 142 3 gusting 6 15.0
2019-Nov-14 20:23 142 8 gusting 10 15.0
2019-Nov-14 20:19 142 6 gusting 9 15.0
2019-Nov-14 20:13 142 10 gusting 14 15.0
2019-Nov-14 20:09 135 6 gusting 8 15.0
2019-Nov-14 20:03 135 4 gusting 7 15.0
2019-Nov-14 19:59 142 6 gusting 9 15.0
2019-Nov-14 19:53 045 6 gusting 10 15.0
2019-Nov-14 19:49 338 6 gusting 9 15.0
2019-Nov-14 19:43 180 9 gusting 13 15.0
2019-Nov-14 19:39 292 8 gusting 11 15.0
2019-Nov-14 19:33 135 4 gusting 6 15.0
2019-Nov-14 19:29 135 8 gusting 12 15.0
2019-Nov-14 19:23 142 3 gusting 5 15.0
2019-Nov-14 19:19 135 5 gusting 7 15.0
2019-Nov-14 19:13 142 5 gusting 6 15.0
2019-Nov-14 19:09 045 4 gusting 6 15.0
2019-Nov-14 19:03 045 8 gusting 9 15.0
2019-Nov-14 18:59 15.0
2019-Nov-14 18:53 135 3 gusting 6 15.0
2019-Nov-14 18:49 135 3 gusting 5 15.0
2019-Nov-14 18:43 142 6 gusting 10 15.0
2019-Nov-14 18:39 135 6 gusting 11 15.0
2019-Nov-14 18:33 135 4 gusting 6 15.0
2019-Nov-14 18:29 142 5 gusting 7 15.0
2019-Nov-14 18:23 142 6 gusting 9 15.0
2019-Nov-14 18:19 135 4 gusting 6 15.0
2019-Nov-14 18:13 135 5 gusting 7 15.0
2019-Nov-14 18:09 135 6 gusting 10 15.0
2019-Nov-14 18:03 142 7 gusting 10 15.0
2019-Nov-14 17:59 142 7 gusting 10 15.0
2019-Nov-14 17:53 142 5 gusting 6 15.0
2019-Nov-14 17:49 135 5 gusting 8 15.0
2019-Nov-14 17:43 142 5 gusting 8 14.4
2019-Nov-14 17:39 142 6 gusting 8 14.4
2019-Nov-14 17:33 135 6 gusting 6 14.4
2019-Nov-14 17:29 135 6 gusting 7 14.4
2019-Nov-14 17:23 14.4
2019-Nov-14 17:19 142 6 gusting 9 14.4
2019-Nov-14 17:13 135 4 gusting 6 15.0
2019-Nov-14 17:09 142 4 gusting 6 15.0
2019-Nov-14 17:03 135 6 gusting 8 15.0
2019-Nov-14 16:59 142 3 gusting 6 15.0
2019-Nov-14 16:53 135 5 gusting 7 15.0
2019-Nov-14 16:49 142 3 gusting 6 15.0
2019-Nov-14 16:43 142 3 gusting 6 15.0
2019-Nov-14 16:39 135 2 gusting 3 15.0
2019-Nov-14 16:33 135 5 gusting 8 15.0
2019-Nov-14 16:29 142 4 gusting 6 15.0
2019-Nov-14 16:23 135 6 gusting 6 15.0
2019-Nov-14 16:19 135 8 gusting 11 15.0
2019-Nov-14 16:13 135 4 gusting 7 15.0
2019-Nov-14 16:09 142 6 gusting 8 15.0
2019-Nov-14 16:03 142 3 gusting 6 15.0
2019-Nov-14 15:59 142 4 gusting 6 15.0
2019-Nov-14 15:53 142 6 gusting 7 15.0
2019-Nov-14 15:49 142 7 gusting 12 15.0
2019-Nov-14 15:43 142 6 gusting 9 15.0
2019-Nov-14 15:39 135 6 gusting 8 15.0
2019-Nov-14 15:33 142 7 gusting 9 15.6
2019-Nov-14 15:29 045 3 gusting 6 15.6
2019-Nov-14 15:19 142 5 gusting 6 15.6
2019-Nov-14 15:13 142 8 gusting 11 15.6
2019-Nov-14 15:09 142 4 gusting 6 15.6
2019-Nov-14 15:03 135 3 gusting 5 15.6
2019-Nov-14 14:59 270 6 gusting 7 15.6
2019-Nov-14 14:53 142 3 gusting 5 15.6
2019-Nov-14 14:49 135 4 gusting 6 15.6
2019-Nov-14 14:43 142 3 gusting 6 15.6
2019-Nov-14 14:39 142 5 gusting 6 15.6
2019-Nov-14 14:33 142 3 gusting 6 15.6
2019-Nov-14 14:29 142 5 gusting 6 16.1
2019-Nov-14 14:23 142 6 gusting 11 16.1
2019-Nov-14 14:19 135 3 gusting 6 16.1
2019-Nov-14 14:13 045 5 gusting 6 16.7
2019-Nov-14 14:09 135 6 gusting 7 16.7
2019-Nov-14 14:03 130 6 gusting 8 17.2
2019-Nov-14 13:59 142 6 gusting 9 17.2
2019-Nov-14 13:53 135 3 gusting 5 17.2
2019-Nov-14 13:49 142 6 gusting 8 17.2
2019-Nov-14 13:39 142 6 gusting 9 17.8
2019-Nov-14 13:33 142 6 gusting 6 17.8
2019-Nov-14 13:29 270 3 gusting 4 17.8
2019-Nov-14 13:23 135 3 gusting 6 17.8
2019-Nov-14 13:19 142 4 gusting 6 17.2
2019-Nov-14 13:13 142 9 gusting 13 17.2
2019-Nov-14 13:09 142 6 gusting 6 17.8
2019-Nov-14 13:03 142 5 gusting 6 17.2
2019-Nov-14 12:59 142 5 gusting 6 17.2
2019-Nov-14 12:53 142 5 gusting 6 17.2
2019-Nov-14 12:39 135 4 gusting 6 17.2
2019-Nov-14 12:33 045 6 gusting 8 16.7
2019-Nov-14 12:29 135 7 gusting 9 16.7
2019-Nov-14 12:23 045 6 gusting 8 16.7
2019-Nov-14 12:19 142 4 gusting 6 16.7
2019-Nov-14 12:13 142 6 gusting 9 16.7
2019-Nov-14 12:09 135 5 gusting 8 16.7
2019-Nov-14 12:03 142 6 gusting 6 16.7
2019-Nov-14 11:59 142 6 gusting 9 16.7
2019-Nov-14 11:53 142 5 gusting 6 16.7
2019-Nov-14 11:49 135 6 gusting 7 16.7
2019-Nov-14 11:43 180 4 gusting 6 16.1
2019-Nov-14 11:39 180 4 gusting 6 16.1
2019-Nov-14 11:33 142 5 gusting 6 16.1
2019-Nov-14 11:29 135 6 gusting 9 16.1
2019-Nov-14 11:23 135 5 gusting 7 15.6
2019-Nov-14 11:19 135 3 gusting 6 15.6
2019-Nov-14 11:13 135 6 gusting 9 16.1
2019-Nov-14 11:09 142 6 gusting 10 16.1
2019-Nov-14 11:03 135 6 gusting 8 16.1
2019-Nov-14 10:59 142 8 gusting 13 16.1
2019-Nov-14 10:53 135 7 gusting 10 16.7
2019-Nov-14 10:49 135 5 gusting 8 16.7
2019-Nov-14 10:43 045 8 gusting 9 16.7
2019-Nov-14 10:39 130 3 gusting 6 16.1
2019-Nov-14 10:33 135 5 gusting 7 16.1
2019-Nov-14 10:29 135 3 gusting 6 15.6
2019-Nov-14 10:23 142 3 gusting 4 15.6
2019-Nov-14 10:19 135 5 gusting 6 15.6
2019-Nov-14 10:13 142 2 gusting 3 15.6
2019-Nov-14 10:09 130 3 gusting 6 15.6
2019-Nov-14 10:03 142 8 gusting 10 15.6
2019-Nov-14 09:59 135 3 gusting 6 15.6
2019-Nov-14 09:53 292 6 gusting 6 15.0
2019-Nov-14 09:49 045 4 gusting 6 15.6
2019-Nov-14 09:43 135 5 gusting 6 15.0
2019-Nov-14 09:39 180 5 gusting 6 15.0
2019-Nov-14 09:33 142 3 gusting 5 15.0
2019-Nov-14 09:29 135 2 gusting 3 14.4
2019-Nov-14 09:23 180 1 gusting 2 13.9
2019-Nov-14 09:19 142 1 gusting 3 13.9
2019-Nov-14 09:13 13.3
2019-Nov-14 09:09 270 2 gusting 3 13.9
2019-Nov-14 09:03 270 2 gusting 3 13.9
2019-Nov-14 08:59 142 3 gusting 4 13.9
2019-Nov-14 08:53 225 1 gusting 1 13.9
2019-Nov-14 08:49 142 1 gusting 1 13.9
2019-Nov-14 08:43 142 2 gusting 3 13.3
2019-Nov-14 08:39 135 4 gusting 6 13.3
2019-Nov-14 08:33 135 3 gusting 4 12.8
2019-Nov-14 08:29 135 3 gusting 6 12.8
2019-Nov-14 08:23 045 3 gusting 3 12.2
2019-Nov-14 08:19 135 4 gusting 5 11.7
2019-Nov-14 08:13 142 1 gusting 3 11.1
2019-Nov-14 08:09 135 0 gusting 1 10.6
2019-Nov-14 08:03 135 1 gusting 2 10.0
2019-Nov-14 07:59 135 1 gusting 3 10.0
2019-Nov-14 07:53 135 1 gusting 3 8.9
2019-Nov-14 07:49 135 1 gusting 3 8.9
2019-Nov-14 07:43 135 1 gusting 2 8.3
2019-Nov-14 07:39 142 0 gusting 1 8.3
2019-Nov-14 07:33 180 1 gusting 2 7.8
2019-Nov-14 07:29 180 1 gusting 2 7.8
2019-Nov-14 07:23 135 0 gusting 0 7.2
2019-Nov-14 07:19 135 7.2
2019-Nov-14 07:13 180 6.7
2019-Nov-14 07:09 142 6.7
2019-Nov-14 07:03 142 1 gusting 2 6.1
2019-Nov-14 06:59 6.1
2019-Nov-14 06:53 142 1 gusting 1 5.6
2019-Nov-14 06:49 270 0 gusting 0 5.6
2019-Nov-14 06:43 180 1 gusting 2 5.0
2019-Nov-14 06:39 180 1 gusting 3 5.0
2019-Nov-14 06:33 180 1 gusting 3 5.0
2019-Nov-14 06:29 142 1 gusting 1 5.0
2019-Nov-14 06:23 225 1 gusting 2 5.0
2019-Nov-14 06:19 180 5.0
2019-Nov-14 06:13 225 1 gusting 1 5.6
2019-Nov-14 06:09 142 5.6
2019-Nov-14 06:03 142 5.6
2019-Nov-14 05:59 142 0 gusting 1 5.6
2019-Nov-14 05:53 142 5.6
2019-Nov-14 05:49 142 0 gusting 1 5.6
2019-Nov-14 05:43 5.6
2019-Nov-14 05:39 045 0 gusting 1 5.6
2019-Nov-14 05:33 142 5.6
2019-Nov-14 05:29 135 0 gusting 1 5.6
2019-Nov-14 05:23 135 5.6
2019-Nov-14 05:19 135 5.6
2019-Nov-14 05:13 135 0 gusting 1 5.6
2019-Nov-14 05:09 142 5.6
2019-Nov-14 05:03 142 1 gusting 1 6.1
2019-Nov-14 04:59 135 0 gusting 1 6.1
2019-Nov-14 04:53 180 6.1
2019-Nov-14 04:49 180 1 gusting 1 6.1
2019-Nov-14 04:43 142 1 gusting 2 6.1
2019-Nov-14 04:39 225 0 gusting 1 6.1
2019-Nov-14 04:33 225 1 gusting 2 6.1
2019-Nov-14 04:29 225 1 gusting 1 6.1
2019-Nov-14 04:23 142 0 gusting 1 6.1
2019-Nov-14 04:19 225 0 gusting 1 6.1
2019-Nov-14 04:13 180 0 gusting 1 6.1
2019-Nov-14 04:09 180 0 gusting 1 6.1
2019-Nov-14 04:03 142 1 gusting 2 6.7
2019-Nov-14 03:59 142 1 gusting 2 6.7
2019-Nov-14 03:53 045 6.7
2019-Nov-14 03:49 135 6.7
2019-Nov-14 03:43 135 6.7
2019-Nov-14 03:39 180 1 gusting 1 6.7
2019-Nov-14 03:33 180 1 gusting 1 6.7
2019-Nov-14 03:29 180 1 gusting 2 6.7
2019-Nov-14 03:23 180 1 gusting 2 6.7
2019-Nov-14 03:19 180 6.7
2019-Nov-14 03:13 225 1 gusting 1 6.7
2019-Nov-14 03:09 142 3 gusting 5 6.7
2019-Nov-14 03:03 225 7.2
2019-Nov-14 02:59 225 7.2
2019-Nov-14 02:53 142 7.2
2019-Nov-14 02:49 142 7.2
2019-Nov-14 02:43 142 7.2
2019-Nov-14 02:39 142 0 gusting 0 7.2
2019-Nov-14 02:33 180 0 gusting 1 7.2
2019-Nov-14 02:29 142 1 gusting 2 7.2
2019-Nov-14 02:23 142 1 gusting 1 7.2
2019-Nov-14 02:19 142 7.2
2019-Nov-14 02:13 7.8
2019-Nov-14 02:09 045 7.8
2019-Nov-14 02:03 045 2 gusting 3 7.8
2019-Nov-14 01:59 135 0 gusting 1 7.8
2019-Nov-14 01:53 142 1 gusting 1 7.8
2019-Nov-14 01:49 142 1 gusting 2 7.8
2019-Nov-14 01:43 135 3 gusting 5 7.8
2019-Nov-14 01:39 135 1 gusting 1 7.8
2019-Nov-14 01:33 270 1 gusting 1 7.2
2019-Nov-14 01:29 270 1 gusting 1 7.2
2019-Nov-14 01:23 270 1 gusting 1 7.2
2019-Nov-14 01:19 180 2 gusting 3 7.8
2019-Nov-14 01:13 225 0 gusting 1 7.8
2019-Nov-14 01:09 225 0 gusting 1 7.8
2019-Nov-14 01:03 180 1 gusting 1 7.8
2019-Nov-14 00:59 180 0 gusting 1 7.8
2019-Nov-14 00:53 180 7.8
2019-Nov-14 00:49 135 7.8
2019-Nov-14 00:43 7.8
2019-Nov-14 00:39 7.8
2019-Nov-14 00:33 045 1 gusting 1 7.8
2019-Nov-14 00:29 045 7.8
2019-Nov-14 00:23 142 0 gusting 1 7.8
2019-Nov-14 00:19 142 0 gusting 1 7.8
2019-Nov-14 00:13 225 1 gusting 1 7.8
2019-Nov-14 00:09 135 0 gusting 1 7.8
2019-Nov-14 00:03 180 1 gusting 1 7.8
2019-Nov-13 23:59 225 0 gusting 1 7.8
2019-Nov-13 23:53 180 0 gusting 1 7.8
2019-Nov-13 23:49 180 0 gusting 1 8.3
2019-Nov-13 23:43 180 1 gusting 2 8.3
2019-Nov-13 23:39 135 1 gusting 1 8.3
2019-Nov-13 23:33 135 3 gusting 4 8.3
2019-Nov-13 23:29 180 1 gusting 1 8.3
2019-Nov-13 23:23 225 1 gusting 1 8.3
2019-Nov-13 23:19 270 0 gusting 0 8.3
2019-Nov-13 23:13 045 8.3
2019-Nov-13 23:09 045 1 gusting 2 8.3
2019-Nov-13 23:03 225 1 gusting 1 8.3
2019-Nov-13 22:59 225 1 gusting 1 8.3
2019-Nov-13 22:53 225 1 gusting 1 8.3
2019-Nov-13 22:49 142 0 gusting 1 8.3
2019-Nov-13 22:43 180 0 gusting 1 8.3
2019-Nov-13 22:39 180 8.3
2019-Nov-13 22:33 180 8.3
2019-Nov-13 22:29 180 1 gusting 1 8.3
2019-Nov-13 22:23 225 0 gusting 1 8.3
2019-Nov-13 22:19 225 8.3
2019-Nov-13 22:13 225 1 gusting 1 8.3
2019-Nov-13 22:09 180 0 gusting 1 8.3
2019-Nov-13 22:03 8.3
2019-Nov-13 21:59 045 1 gusting 1 8.3
2019-Nov-13 21:53 045 1 gusting 1 8.9
2019-Nov-13 21:49 180 8.9
2019-Nov-13 21:43 180 8.9
2019-Nov-13 21:39 180 8.9
2019-Nov-13 21:33 270 1 gusting 2 8.9
2019-Nov-13 21:29 180 0 gusting 1 8.9
2019-Nov-13 21:23 142 1 gusting 2 8.9
2019-Nov-13 21:19 225 1 gusting 2 8.9
2019-Nov-13 21:13 225 1 gusting 2 8.9
2019-Nov-13 21:09 225 1 gusting 1 8.9
2019-Nov-13 21:03 142 8.9
2019-Nov-13 20:59 142 8.9
2019-Nov-13 20:53 135 0 gusting 1 9.4
2019-Nov-13 20:49 135 0 gusting 1 9.4
2019-Nov-13 20:43 045 9.4
2019-Nov-13 20:39 045 9.4
2019-Nov-13 20:33 045 9.4
2019-Nov-13 20:29 045 0 gusting 1 9.4
2019-Nov-13 20:23 142 9.4
2019-Nov-13 20:19 135 9.4
2019-Nov-13 20:13 135 0 gusting 1 9.4
2019-Nov-13 20:09 135 0 gusting 1 9.4
2019-Nov-13 20:03 142 9.4
2019-Nov-13 19:59 142 0 gusting 1 10.0
2019-Nov-13 19:53 142 1 gusting 1 10.0
2019-Nov-13 19:49 142 1 gusting 1 10.0
2019-Nov-13 19:43 270 10.0
2019-Nov-13 19:39 270 10.0
2019-Nov-13 19:33 270 10.0
2019-Nov-13 19:29 270 0 gusting 1 10.0
2019-Nov-13 19:23 270 0 gusting 1 10.0
2019-Nov-13 19:19 225 0 gusting 1 10.0
2019-Nov-13 19:13 180 0 gusting 1 10.0
2019-Nov-13 19:09 142 10.0
2019-Nov-13 19:03 142 10.0
2019-Nov-13 18:59 142 10.0
2019-Nov-13 18:53 142 10.0
2019-Nov-13 18:49 142 10.0
2019-Nov-13 18:43 142 10.0
2019-Nov-13 18:39 142 1 gusting 1 10.0
2019-Nov-13 18:33 142 0 gusting 1 10.6
2019-Nov-13 18:29 045 10.6
2019-Nov-13 18:23 142 0 gusting 1 10.6
2019-Nov-13 18:19 045 10.6
2019-Nov-13 18:13 045 10.6
2019-Nov-13 18:09 045 10.6
2019-Nov-13 18:03 045 0 gusting 0 10.6
2019-Nov-13 17:59 10.6
2019-Nov-13 17:53 045 0 gusting 1 11.1
2019-Nov-13 17:49 045 0 gusting 1 11.1
2019-Nov-13 17:43 045 0 gusting 1 11.1
2019-Nov-13 17:39 045 1 gusting 1 11.1
2019-Nov-13 17:33 142 11.1
2019-Nov-13 17:29 142 11.7
2019-Nov-13 17:23 142 11.7
2019-Nov-13 17:19 142 11.7
2019-Nov-13 17:13 142 0 gusting 1 11.7
2019-Nov-13 17:09 142 0 gusting 1 11.7
2019-Nov-13 17:03 045 1 gusting 1 11.7
2019-Nov-13 16:59 142 1 gusting 2 11.7
2019-Nov-13 16:53 135 1 gusting 1 11.7
2019-Nov-13 16:49 142 0 gusting 1 12.2
2019-Nov-13 16:43 142 0 gusting 1 12.2
2019-Nov-13 16:39 142 2 gusting 3 12.2
2019-Nov-13 16:33 142 2 gusting 3 12.2
2019-Nov-13 16:29 142 1 gusting 2 12.2
2019-Nov-13 16:23 142 1 gusting 3 12.8
2019-Nov-13 16:19 142 1 gusting 2 12.8
2019-Nov-13 16:13 142 1 gusting 1 12.8
2019-Nov-13 16:09 142 1 gusting 1 12.8
2019-Nov-13 16:03 135 1 gusting 3 13.3
2019-Nov-13 15:59 135 1 gusting 2 13.3
2019-Nov-13 15:53 142 1 gusting 2 13.3
2019-Nov-13 15:49 142 1 gusting 2 13.9
2019-Nov-13 15:43 142 1 gusting 2 13.9
2019-Nov-13 15:39 142 0 gusting 1 13.9
2019-Nov-13 15:33 142 14.4
2019-Nov-13 15:29 142 0 gusting 1 14.4
2019-Nov-13 15:23 142 0 gusting 1 15.0
2019-Nov-13 15:19 142 0 gusting 1 15.0
2019-Nov-13 15:13 142 15.0
2019-Nov-13 15:09 135 0 gusting 1 15.0
2019-Nov-13 15:03 225 0 gusting 0 15.6
2019-Nov-13 14:59 225 0 gusting 1 15.6
2019-Nov-13 14:53 180 0 gusting 1 15.6
2019-Nov-13 14:49 225 1 gusting 1 15.6
2019-Nov-13 14:43 225 1 gusting 2 16.1
2019-Nov-13 14:39 225 0 gusting 1 16.1
2019-Nov-13 14:33 180 3 gusting 3 16.7
2019-Nov-13 14:29 225 1 gusting 3 16.7
2019-Nov-13 14:23 180 1 gusting 2 16.7
2019-Nov-13 14:19 270 1 gusting 1 16.7
2019-Nov-13 14:13 180 1 gusting 2 16.7
2019-Nov-13 14:09 270 1 gusting 1 16.7
2019-Nov-13 14:03 135 3 gusting 4 16.7
2019-Nov-13 13:59 225 3 gusting 4 16.7
2019-Nov-13 13:53 135 2 gusting 3 16.7
2019-Nov-13 13:49 225 4 gusting 5 16.7
2019-Nov-13 13:43 142 3 gusting 3 16.7
2019-Nov-13 13:39 225 3 gusting 4 16.1
2019-Nov-13 13:33 270 2 gusting 3 16.1
2019-Nov-13 13:29 270 3 gusting 4 16.1
2019-Nov-13 13:23 16.1
2019-Nov-13 13:19 270 3 gusting 4 16.1
2019-Nov-13 13:13 142 3 gusting 5 16.1
2019-Nov-13 13:09 225 4 gusting 6 16.1
2019-Nov-13 13:03 270 1 gusting 2 16.7
2019-Nov-13 12:59 225 3 gusting 5 16.7
2019-Nov-13 12:53 292 4 gusting 6 16.7
2019-Nov-13 12:49 142 2 gusting 3 16.7
2019-Nov-13 12:43 142 2 gusting 3 16.7
2019-Nov-13 12:39 270 3 gusting 5 16.7
2019-Nov-13 12:33 225 3 gusting 3 16.7
2019-Nov-13 12:29 270 3 gusting 4 16.7
2019-Nov-13 12:23 142 3 gusting 4 16.7
2019-Nov-13 12:19 180 2 gusting 3 16.7
2019-Nov-13 12:13 142 2 gusting 4 16.7
2019-Nov-13 12:09 270 2 gusting 3 16.7
2019-Nov-13 12:03 180 1 gusting 2 16.1
2019-Nov-13 11:59 135 16.1
2019-Nov-13 11:53 045 1 gusting 2 15.6
2019-Nov-13 11:49 142 1 gusting 2 15.6
2019-Nov-13 11:43 225 1 gusting 1 15.6
2019-Nov-13 11:39 142 0 gusting 1 15.0
2019-Nov-13 11:33 142 0 gusting 1 13.9
2019-Nov-13 11:29 142 0 gusting 1 13.9
2019-Nov-13 11:23 045 1 gusting 2 13.3
2019-Nov-13 11:19 12.8
2019-Nov-13 11:13 142 0 gusting 1 12.2
2019-Nov-13 11:09 12.2
2019-Nov-13 11:03 11.7
2019-Nov-13 10:59 11.7
2019-Nov-13 10:53 142 2 gusting 3 11.7
2019-Nov-13 10:49 045 5 gusting 6 11.7
2019-Nov-13 10:43 11.7
2019-Nov-13 10:39 11.7
2019-Nov-13 10:33 142 6 gusting 9 12.2
2019-Nov-13 10:29 13.3
2019-Nov-13 10:23 15.0
2019-Nov-13 10:19 225 1 gusting 1 15.0
2019-Nov-13 10:13 142 3 gusting 4 14.4
2019-Nov-13 10:09 180 3 gusting 4 14.4
2019-Nov-13 10:03 225 1 gusting 3 14.4
2019-Nov-13 09:59 135 2 gusting 3 14.4
2019-Nov-13 09:53 135 0 gusting 1 14.4
2019-Nov-13 09:49 142 2 gusting 3 14.4
2019-Nov-13 09:43 135 1 gusting 1 14.4
2019-Nov-13 09:39 180 1 gusting 1 14.4
2019-Nov-13 09:33 045 0 gusting 1 14.4
2019-Nov-13 09:29 142 0 gusting 1 14.4
2019-Nov-13 09:23 142 1 gusting 2 14.4
2019-Nov-13 09:19 142 1 gusting 1 14.4
2019-Nov-13 09:13 135 1 gusting 1 13.9
2019-Nov-13 09:09 142 1 gusting 2 13.3
2019-Nov-13 09:03 180 1 gusting 2 12.8
2019-Nov-13 08:59 180 1 gusting 2 12.8
2019-Nov-13 08:53 180 1 gusting 1 13.3
2019-Nov-13 08:49 135 1 gusting 3 12.8
2019-Nov-13 08:43 180 1 gusting 2 12.8
2019-Nov-13 08:39 135 1 gusting 1 12.8
2019-Nov-13 08:33 135 2 gusting 3 12.2
2019-Nov-13 08:29 135 1 gusting 2 12.2
2019-Nov-13 08:23 142 1 gusting 2 11.7
2019-Nov-13 08:19 142 2 gusting 3 11.7
2019-Nov-13 08:13 142 2 gusting 3 11.1
2019-Nov-13 08:09 142 3 gusting 4 11.1
2019-Nov-13 08:03 045 1 gusting 2 11.7
2019-Nov-13 07:59 045 3 gusting 4 11.1
2019-Nov-13 07:53 142 1 gusting 1 11.1
2019-Nov-13 07:49 045 1 gusting 1 11.1
2019-Nov-13 07:43 135 0 gusting 1 10.6
2019-Nov-13 07:39 135 0 gusting 1 10.6
2019-Nov-13 07:33 225 0 gusting 1 10.6
2019-Nov-13 07:29 180 10.6
2019-Nov-13 07:23 180 1 gusting 1 10.6
2019-Nov-13 07:19 225 1 gusting 2 10.6
2019-Nov-13 07:13 225 0 gusting 1 10.6
2019-Nov-13 07:09 180 10.6
2019-Nov-13 07:03 135 0 gusting 0 10.6
2019-Nov-13 06:59 135 0 gusting 1 10.6
2019-Nov-13 06:53 180 0 gusting 1 10.6
2019-Nov-13 06:49 135 0 gusting 1 10.6
2019-Nov-13 06:43 180 10.6
2019-Nov-13 06:39 180 10.6
2019-Nov-13 06:33 180 10.6
2019-Nov-13 06:29 142 10.6
2019-Nov-13 06:23 142 10.6
2019-Nov-13 06:19 142 10.6
2019-Nov-13 06:13 180 10.6
2019-Nov-13 06:09 180 10.6
2019-Nov-13 06:03 135 0 gusting 1 10.6
2019-Nov-13 05:59 142 0 gusting 1 10.6
2019-Nov-13 05:53 180 0 gusting 1 10.6
2019-Nov-13 05:49 135 10.6
2019-Nov-13 05:43 045 1 gusting 1 10.6
2019-Nov-13 05:39 180 0 gusting 0 10.6
2019-Nov-13 05:33 225 10.6
2019-Nov-13 05:29 225 11.1
2019-Nov-13 05:23 225 11.1
2019-Nov-13 05:19 180 11.1
2019-Nov-13 05:13 180 0 gusting 1 11.1
2019-Nov-13 05:09 180 1 gusting 1 11.1
2019-Nov-13 05:03 180 1 gusting 1 11.1
2019-Nov-13 04:59 142 1 gusting 1 11.1
2019-Nov-13 04:53 180 1 gusting 1 11.1
2019-Nov-13 04:49 180 0 gusting 1 11.1
2019-Nov-13 04:43 180 0 gusting 0 11.1
2019-Nov-13 04:39 180 11.1
2019-Nov-13 04:33 180 11.1
2019-Nov-13 04:29 180 11.1
2019-Nov-13 04:23 180 11.1
2019-Nov-13 04:19 180 11.1
2019-Nov-13 04:13 135 11.1
2019-Nov-13 04:09 135 11.1
2019-Nov-13 04:03 135 11.1
2019-Nov-13 03:59 135 11.1
2019-Nov-13 03:53 270 11.1
2019-Nov-13 03:49 270 11.1
2019-Nov-13 03:43 270 11.1
2019-Nov-13 03:39 11.1
2019-Nov-13 03:33 11.1
2019-Nov-13 03:29 142 11.1
2019-Nov-13 03:23 142 11.1
2019-Nov-13 03:19 225 11.1
2019-Nov-13 03:13 225 1 gusting 1 11.1
2019-Nov-13 03:09 225 11.1
2019-Nov-13 03:03 225 11.1
2019-Nov-13 02:59 225 11.1
2019-Nov-13 02:53 180 11.1
2019-Nov-13 02:49 180 0 gusting 1 11.1
2019-Nov-13 02:43 135 11.1
2019-Nov-13 02:39 180 11.1
2019-Nov-13 02:33 180 11.1
2019-Nov-13 02:29 11.1
2019-Nov-13 02:23 11.1
2019-Nov-13 02:19 225 11.1
2019-Nov-13 02:13 225 11.1
2019-Nov-13 02:09 225 11.1
2019-Nov-13 02:03 225 11.1
2019-Nov-13 01:59 225 11.1
2019-Nov-13 01:53 225 11.1
2019-Nov-13 01:49 225 11.1
2019-Nov-13 01:43 225 11.1
2019-Nov-13 01:39 180 0 gusting 1 11.1
2019-Nov-13 01:33 225 1 gusting 1 11.1
2019-Nov-13 01:29 270 11.1
2019-Nov-13 01:23 270 11.1
2019-Nov-13 01:19 270 11.1
2019-Nov-13 01:13 142 0 gusting 1 11.1
2019-Nov-13 01:09 142 0 gusting 1 11.1
2019-Nov-13 01:03 270 1 gusting 1 11.1
2019-Nov-13 00:59 142 1 gusting 1 11.1
2019-Nov-13 00:53 142 0 gusting 1 11.1
2019-Nov-13 00:49 11.1
2019-Nov-13 00:43 142 1 gusting 2 11.1
2019-Nov-13 00:39 135 11.1
2019-Nov-13 00:33 045 11.1
2019-Nov-13 00:29 045 11.1
2019-Nov-13 00:23 142 0 gusting 1 11.1
2019-Nov-13 00:19 135 11.1
2019-Nov-13 00:13 135 1 gusting 1 11.1
2019-Nov-13 00:09 135 0 gusting 1 11.1
2019-Nov-13 00:03 270 11.1
2019-Nov-12 23:59 270 0 gusting 1 11.1
2019-Nov-12 23:53 142 11.1
2019-Nov-12 23:49 142 11.1
2019-Nov-12 23:43 142 11.1
2019-Nov-12 23:39 142 0 gusting 1 11.1
2019-Nov-12 23:33 270 0 gusting 1 11.1
2019-Nov-12 23:29 142 0 gusting 1 11.1
2019-Nov-12 23:23 142 1 gusting 1 11.1
2019-Nov-12 23:19 270 11.1
2019-Nov-12 23:13 142 0 gusting 1 11.1
2019-Nov-12 23:09 225 11.1
2019-Nov-12 23:03 270 0 gusting 1 11.1
2019-Nov-12 22:59 270 11.1
2019-Nov-12 22:53 142 11.1
2019-Nov-12 22:49 11.1
2019-Nov-12 22:43 11.1
2019-Nov-12 22:39 11.1
2019-Nov-12 22:33 225 11.1
2019-Nov-12 22:29 225 11.1
2019-Nov-12 22:23 225 11.1
2019-Nov-12 22:19 135 11.1
2019-Nov-12 22:13 180 1 gusting 2 11.1
2019-Nov-12 22:09 225 1 gusting 1 11.1
2019-Nov-12 22:03 142 0 gusting 1 11.1
2019-Nov-12 21:59 142 1 gusting 2 11.1
2019-Nov-12 21:53 11.1
2019-Nov-12 21:49 135 1 gusting 2 11.1
2019-Nov-12 21:43 135 3 gusting 4 11.1
2019-Nov-12 21:39 180 1 gusting 1 11.1
2019-Nov-12 21:33 180 4 gusting 6 11.1
2019-Nov-12 21:29 180 4 gusting 6 11.1
2019-Nov-12 21:23 180 3 gusting 4 11.1
2019-Nov-12 21:19 142 5 gusting 6 11.1
2019-Nov-12 21:13 180 1 gusting 3 11.1
2019-Nov-12 21:09 180 1 gusting 1 11.1
2019-Nov-12 21:03 225 2 gusting 3 11.1